JST3131 YPPH-YPAD
Flight info
| Callsign | JST3131 |
|---|---|
| Flight time | 2h 28m |
| Altitude | 35000 |
| Route | PH H18 BURGU Y135 AKRUN/N0455F370 Y135 DADRU Y39 ATNAR N640 AD |
| Aircraft | A321/M-SDE3FGHIRWY/LB1 |
Departure
| Time | 2025-09-09 07:28 |
|---|---|
| Airport | Perth International Airport (YPPH) |
Arrival
| Time | 2025-09-09 09:56 |
|---|---|
| Airport | Adelaide International Airport (YPAD) |
| Time | Latitude | Longitude | Altitude | Speed | Heading |
|---|---|---|---|---|---|
| 2025-09-09 07:04 | -31.93469 | 115.96155 | 57 ft | 0 kts | 301° |
| 2025-09-09 07:18 | -31.93484 | 115.96186 | 55 ft | 3 kts | 301° |
| 2025-09-09 07:19 | -31.93516 | 115.96210 | 50 ft | 1 kts | 0° |
| 2025-09-09 07:21 | -31.93503 | 115.96211 | 49 ft | 2 kts | 2° |
| 2025-09-09 07:22 | -31.93473 | 115.96247 | 54 ft | 6 kts | 46° |
| 2025-09-09 07:22 | -31.93364 | 115.96306 | 52 ft | 7 kts | 15° |
| 2025-09-09 07:23 | -31.93268 | 115.96326 | 52 ft | 9 kts | 360° |
| 2025-09-09 07:23 | -31.93141 | 115.96357 | 50 ft | 10 kts | 33° |
| 2025-09-09 07:24 | -31.93030 | 115.96491 | 50 ft | 12 kts | 47° |
| 2025-09-09 07:24 | -31.92975 | 115.96560 | 53 ft | 10 kts | 43° |
| 2025-09-09 07:25 | -31.92853 | 115.96709 | 54 ft | 6 kts | 103° |
| 2025-09-09 07:26 | -31.92863 | 115.96756 | 54 ft | 10 kts | 105° |
| 2025-09-09 07:27 | -31.93064 | 115.96791 | 50 ft | 39 kts | 196° |
| 2025-09-09 07:27 | -31.94648 | 115.96323 | 315 ft | 165 kts | 194° |
| 2025-09-09 07:28 | -31.96897 | 115.95818 | 2207 ft | 173 kts | 173° |
| 2025-09-09 07:28 | -31.97961 | 115.96538 | 2575 ft | 193 kts | 133° |
| 2025-09-09 07:29 | -32.00307 | 116.01475 | 3735 ft | 253 kts | 122° |
| 2025-09-09 07:29 | -32.02052 | 116.05131 | 5381 ft | 258 kts | 121° |
| 2025-09-09 07:30 | -32.03823 | 116.08839 | 7025 ft | 261 kts | 121° |
| 2025-09-09 07:30 | -32.05622 | 116.12604 | 8558 ft | 267 kts | 121° |
| 2025-09-09 07:31 | -32.07475 | 116.16456 | 10061 ft | 274 kts | 122° |
| 2025-09-09 07:31 | -32.09503 | 116.20662 | 10504 ft | 318 kts | 121° |
| 2025-09-09 07:32 | -32.11754 | 116.25376 | 11430 ft | 336 kts | 121° |
| 2025-09-09 07:32 | -32.12904 | 116.27789 | 12099 ft | 340 kts | 122° |
| 2025-09-09 07:33 | -32.16457 | 116.35217 | 14014 ft | 353 kts | 122° |
| 2025-09-09 07:33 | -32.18896 | 116.40333 | 15185 ft | 361 kts | 123° |
| 2025-09-09 07:34 | -32.21370 | 116.45539 | 16413 ft | 366 kts | 124° |
| 2025-09-09 07:34 | -32.24034 | 116.50749 | 17658 ft | 370 kts | 128° |
| 2025-09-09 07:35 | -32.26826 | 116.55913 | 18846 ft | 375 kts | 129° |
| 2025-09-09 07:35 | -32.29652 | 116.61177 | 19833 ft | 383 kts | 128° |
| 2025-09-09 07:36 | -32.32502 | 116.66568 | 20857 ft | 391 kts | 129° |
| 2025-09-09 07:36 | -32.33945 | 116.69304 | 21314 ft | 395 kts | 129° |
| 2025-09-09 07:37 | -32.39878 | 116.80585 | 23044 ft | 412 kts | 129° |
| 2025-09-09 07:37 | -32.41397 | 116.83479 | 23447 ft | 416 kts | 129° |
| 2025-09-09 07:38 | -32.44484 | 116.89345 | 24175 ft | 424 kts | 130° |
| 2025-09-09 07:38 | -32.47619 | 116.95322 | 24929 ft | 429 kts | 129° |
| 2025-09-09 07:39 | -32.50772 | 117.01375 | 25623 ft | 434 kts | 129° |
| 2025-09-09 07:41 | -32.60060 | 117.29403 | 27980 ft | 475 kts | 115° |
| 2025-09-09 07:43 | -32.68444 | 117.59716 | 30349 ft | 496 kts | 114° |
| 2025-09-09 07:45 | -32.76998 | 117.90998 | 32731 ft | 499 kts | 114° |
| 2025-09-09 07:47 | -32.85528 | 118.22602 | 34784 ft | 505 kts | 113° |
| 2025-09-09 07:49 | -32.93993 | 118.54237 | 35301 ft | 501 kts | 112° |
| 2025-09-09 07:51 | -32.97543 | 118.87401 | 35314 ft | 512 kts | 95° |
| 2025-09-09 07:53 | -32.98332 | 119.21340 | 35293 ft | 513 kts | 94° |
| 2025-09-09 07:55 | -32.99029 | 119.55404 | 35290 ft | 514 kts | 94° |
| 2025-09-09 07:57 | -32.99637 | 119.89491 | 35282 ft | 515 kts | 93° |
| 2025-09-09 07:59 | -33.00140 | 120.22288 | 35264 ft | 517 kts | 93° |
| 2025-09-09 08:01 | -33.01250 | 120.56457 | 35260 ft | 513 kts | 103° |
| 2025-09-09 08:02 | -33.05633 | 120.85734 | 35241 ft | 513 kts | 103° |
| 2025-09-09 08:05 | -33.11158 | 121.23487 | 35235 ft | 512 kts | 102° |
| 2025-09-09 08:07 | -33.15995 | 121.57084 | 35235 ft | 515 kts | 102° |
| 2025-09-09 08:09 | -33.21566 | 121.94934 | 35188 ft | 513 kts | 104° |
| 2025-09-09 08:11 | -33.26770 | 122.24130 | 35185 ft | 514 kts | 103° |
| 2025-09-09 08:13 | -33.33200 | 122.61796 | 35165 ft | 514 kts | 103° |
| 2025-09-09 08:15 | -33.38113 | 122.91120 | 35135 ft | 514 kts | 103° |
| 2025-09-09 08:17 | -33.43667 | 123.24719 | 35134 ft | 514 kts | 102° |
| 2025-09-09 08:19 | -33.49125 | 123.58455 | 35123 ft | 515 kts | 102° |
| 2025-09-09 08:21 | -33.54499 | 123.92239 | 35104 ft | 518 kts | 102° |
| 2025-09-09 08:23 | -33.59823 | 124.26196 | 35110 ft | 518 kts | 101° |
| 2025-09-09 08:25 | -33.65054 | 124.60331 | 35117 ft | 519 kts | 101° |
| 2025-09-09 08:27 | -33.70183 | 124.94462 | 35133 ft | 520 kts | 100° |
| 2025-09-09 08:29 | -33.75011 | 125.27146 | 35097 ft | 519 kts | 99° |
| 2025-09-09 08:31 | -33.79946 | 125.61399 | 35104 ft | 518 kts | 99° |
| 2025-09-09 08:33 | -33.84790 | 125.95615 | 35110 ft | 519 kts | 99° |
| 2025-09-09 08:35 | -33.89544 | 126.29807 | 35114 ft | 518 kts | 98° |
| 2025-09-09 08:37 | -33.94191 | 126.63977 | 35095 ft | 517 kts | 98° |
| 2025-09-09 08:39 | -33.98742 | 126.98233 | 35101 ft | 516 kts | 97° |
| 2025-09-09 08:41 | -34.03163 | 127.32479 | 35102 ft | 517 kts | 97° |
| 2025-09-09 08:43 | -34.07552 | 127.66768 | 35117 ft | 517 kts | 96° |
| 2025-09-09 08:45 | -34.11804 | 128.01105 | 35084 ft | 518 kts | 96° |
| 2025-09-09 08:47 | -34.15986 | 128.35642 | 35081 ft | 520 kts | 95° |
| 2025-09-09 08:49 | -34.20084 | 128.70239 | 35091 ft | 519 kts | 95° |
| 2025-09-09 08:51 | -34.24086 | 129.04816 | 35110 ft | 519 kts | 95° |
| 2025-09-09 08:53 | -34.27989 | 129.39409 | 35102 ft | 518 kts | 94° |
| 2025-09-09 08:55 | -34.31770 | 129.73984 | 35112 ft | 518 kts | 94° |
| 2025-09-09 08:57 | -34.35450 | 130.08550 | 35098 ft | 519 kts | 94° |
| 2025-09-09 08:58 | -34.38614 | 130.38898 | 35097 ft | 520 kts | 93° |
| 2025-09-09 09:01 | -34.42430 | 130.76594 | 35105 ft | 520 kts | 93° |
| 2025-09-09 09:03 | -34.45832 | 131.11404 | 35092 ft | 520 kts | 92° |
| 2025-09-09 09:05 | -34.49162 | 131.46359 | 35076 ft | 522 kts | 92° |
| 2025-09-09 09:07 | -34.52415 | 131.81451 | 35086 ft | 525 kts | 92° |
| 2025-09-09 09:09 | -34.55569 | 132.16766 | 35082 ft | 528 kts | 91° |
| 2025-09-09 09:11 | -34.58655 | 132.52345 | 35090 ft | 531 kts | 91° |
| 2025-09-09 09:13 | -34.61643 | 132.88173 | 35112 ft | 533 kts | 91° |
| 2025-09-09 09:14 | -34.64175 | 133.19476 | 35113 ft | 533 kts | 91° |
| 2025-09-09 09:17 | -34.67313 | 133.59785 | 35115 ft | 533 kts | 91° |
| 2025-09-09 09:19 | -34.69987 | 133.95628 | 35119 ft | 532 kts | 91° |
| 2025-09-09 09:21 | -34.72557 | 134.31526 | 35120 ft | 532 kts | 91° |
| 2025-09-09 09:23 | -34.75029 | 134.67378 | 35115 ft | 532 kts | 90° |
| 2025-09-09 09:25 | -34.77367 | 135.03279 | 35113 ft | 532 kts | 90° |
| 2025-09-09 09:26 | -34.79354 | 135.34715 | 35119 ft | 533 kts | 90° |
| 2025-09-09 09:29 | -34.81775 | 135.75249 | 35118 ft | 534 kts | 90° |
| 2025-09-09 09:31 | -34.82573 | 136.11318 | 35110 ft | 529 kts | 81° |
| 2025-09-09 09:33 | -34.80624 | 136.47059 | 35124 ft | 529 kts | 80° |
| 2025-09-09 09:35 | -34.78648 | 136.81491 | 32294 ft | 525 kts | 81° |
| 2025-09-09 09:37 | -34.76311 | 137.19843 | 27902 ft | 485 kts | 81° |
| 2025-09-09 09:39 | -34.74548 | 137.47652 | 24748 ft | 459 kts | 82° |
| 2025-09-09 09:39 | -34.74050 | 137.55320 | 23971 ft | 452 kts | 82° |
| 2025-09-09 09:40 | -34.73490 | 137.66674 | 22641 ft | 446 kts | 91° |
| 2025-09-09 09:40 | -34.73700 | 137.70412 | 22193 ft | 443 kts | 91° |
| 2025-09-09 09:41 | -34.74307 | 137.81467 | 20872 ft | 431 kts | 91° |
| 2025-09-09 09:41 | -34.74503 | 137.85092 | 20425 ft | 428 kts | 92° |
| 2025-09-09 09:42 | -34.74889 | 137.92249 | 19554 ft | 421 kts | 92° |
| 2025-09-09 09:42 | -34.75264 | 137.99292 | 18707 ft | 414 kts | 92° |
| 2025-09-09 09:43 | -34.75625 | 138.06223 | 17736 ft | 408 kts | 91° |
| 2025-09-09 09:43 | -34.75986 | 138.13240 | 16134 ft | 418 kts | 92° |
| 2025-09-09 09:44 | -34.76528 | 138.23741 | 14629 ft | 407 kts | 92° |
| 2025-09-09 09:44 | -34.76701 | 138.27159 | 14139 ft | 404 kts | 92° |
| 2025-09-09 09:45 | -34.77034 | 138.33716 | 13612 ft | 363 kts | 91° |
| 2025-09-09 09:45 | -34.77335 | 138.39649 | 12225 ft | 345 kts | 91° |
| 2025-09-09 09:46 | -34.77615 | 138.45392 | 10702 ft | 336 kts | 91° |
| 2025-09-09 09:46 | -34.77887 | 138.51000 | 9148 ft | 329 kts | 91° |
| 2025-09-09 09:46 | -34.78017 | 138.53750 | 8376 ft | 325 kts | 92° |
| 2025-09-09 09:47 | -34.78400 | 138.61825 | 6502 ft | 302 kts | 92° |
| 2025-09-09 09:47 | -34.78519 | 138.64304 | 6136 ft | 287 kts | 92° |
| 2025-09-09 09:48 | -34.78847 | 138.71220 | 5177 ft | 266 kts | 93° |
| 2025-09-09 09:49 | -34.79050 | 138.75642 | 4549 ft | 258 kts | 94° |
| 2025-09-09 09:49 | -34.80267 | 138.79411 | 4283 ft | 238 kts | 154° |
| 2025-09-09 09:49 | -34.81746 | 138.79855 | 4248 ft | 210 kts | 196° |
| 2025-09-09 09:50 | -34.83233 | 138.77525 | 4160 ft | 186 kts | 265° |
| 2025-09-09 09:50 | -34.83653 | 138.74411 | 3798 ft | 187 kts | 260° |
| 2025-09-09 09:51 | -34.84112 | 138.71256 | 3365 ft | 189 kts | 259° |
| 2025-09-09 09:52 | -34.85467 | 138.66927 | 2697 ft | 170 kts | 234° |
| 2025-09-09 09:52 | -34.86832 | 138.64847 | 2262 ft | 150 kts | 230° |
| 2025-09-09 09:53 | -34.88150 | 138.62920 | 1869 ft | 147 kts | 230° |
| 2025-09-09 09:53 | -34.89475 | 138.60993 | 1466 ft | 148 kts | 230° |
| 2025-09-09 09:54 | -34.90745 | 138.59148 | 1085 ft | 139 kts | 230° |
| 2025-09-09 09:54 | -34.92612 | 138.56432 | 492 ft | 138 kts | 230° |
| 2025-09-09 09:55 | -34.93850 | 138.54626 | 153 ft | 139 kts | 230° |
| 2025-09-09 09:56 | -34.95145 | 138.52765 | 14 ft | 42 kts | 230° |
| 2025-09-09 09:56 | -34.95169 | 138.52489 | 15 ft | 11 kts | 319° |
| 2025-09-09 09:57 | -34.94992 | 138.52486 | 19 ft | 17 kts | 37° |
| 2025-09-09 09:57 | -34.94760 | 138.52702 | 21 ft | 23 kts | 37° |
| 2025-09-09 09:58 | -34.94528 | 138.52923 | 22 ft | 17 kts | 37° |
| 2025-09-09 09:58 | -34.94455 | 138.53105 | 23 ft | 14 kts | 115° |
| 2025-09-09 09:59 | -34.94500 | 138.53340 | 17 ft | 18 kts | 63° |
| 2025-09-09 09:59 | -34.94357 | 138.53562 | 17 ft | 17 kts | 50° |
| 2025-09-09 10:00 | -34.94117 | 138.53890 | 20 ft | 13 kts | 28° |
| 2025-09-09 10:00 | -34.93996 | 138.53850 | 23 ft | 6 kts | 321° |
| 2025-09-09 10:01 | -34.93965 | 138.53820 | 23 ft | 0 kts | 321° |